Airport ID:KMHV
Update Time (UTC):20/03/2018 11:16
Wind Speed (Knots):4
Wind Direction (Magnetic):360
Temperature (°C):8.3
Dew Point (°C):-7.2
Humidity (%):33.3
Altimeter (inHg):30.04
Density Altitude (Feet):
Visibility (Miles):10
Clouds (Hundreds of feet):###
Present Weather:
METAR:METAR KMHV 201100Z AUTO 36006KT 10SM 08/M07 A3004 RMK A01

The data displayed is for advisory purposes only and is not to be used for flight planning or operations.

This page is not automatically refreshed. Reload the page to see current data.